createdAt,value
2017-12-09T00:01:23.505Z,92.87
2017-12-09T00:03:51.178Z,92.84
2017-12-09T00:06:21.810Z,92.10
2017-12-09T00:08:49.490Z,91.83
2017-12-09T00:11:19.925Z,91.88
2017-12-09T00:13:47.660Z,91.80
2017-12-09T00:16:17.074Z,91.67
2017-12-09T00:18:44.788Z,91.54
2017-12-09T00:21:14.294Z,91.69
2017-12-09T00:23:42.091Z,91.28
2017-12-09T00:26:09.902Z,91.32
2017-12-09T00:28:37.693Z,90.99
2017-12-09T00:31:06.076Z,90.93
2017-12-09T00:33:33.746Z,90.81
2017-12-09T00:36:03.256Z,90.53
2017-12-09T00:38:30.944Z,90.80
2017-12-09T00:40:58.794Z,90.49
2017-12-09T00:43:26.454Z,89.63
2017-12-09T00:45:54.858Z,89.44
2017-12-09T00:48:22.540Z,88.65
2017-12-09T00:50:50.179Z,88.29
2017-12-09T00:53:19.612Z,88.83
2017-12-09T00:55:48.052Z,89.26
2017-12-09T00:58:15.785Z,89.29
2017-12-09T01:00:43.416Z,89.18
2017-12-09T01:03:12.881Z,88.90
2017-12-09T01:05:42.328Z,89.13
2017-12-09T01:08:10.075Z,88.78
2017-12-09T01:10:37.742Z,88.98
2017-12-09T01:13:08.313Z,89.12
2017-12-09T01:15:49.748Z,89.17
2017-12-09T01:18:29.338Z,89.72
2017-12-09T01:20:58.732Z,90.09
2017-12-09T01:23:26.458Z,90.11
2017-12-09T01:25:54.128Z,89.74
2017-12-09T01:28:21.748Z,89.83
2017-12-09T01:30:49.400Z,89.96
2017-12-09T01:33:18.675Z,90.14
2017-12-09T01:35:46.387Z,90.15
2017-12-09T01:38:15.871Z,90.14
2017-12-09T01:40:43.661Z,90.43
2017-12-09T01:43:11.302Z,90.36
2017-12-09T01:45:38.930Z,90.27
2017-12-09T01:48:06.798Z,89.76
2017-12-09T01:50:36.060Z,89.87
2017-12-09T01:53:03.780Z,89.97
2017-12-09T01:55:31.402Z,89.88
2017-12-09T01:57:59.068Z,90.10
2017-12-09T02:00:26.909Z,89.85
2017-12-09T02:02:55.318Z,89.77
2017-12-09T02:05:25.476Z,89.91
2017-12-09T02:07:53.129Z,89.53
2017-12-09T02:10:20.901Z,89.61
2017-12-09T02:12:48.940Z,89.86
2017-12-09T02:15:19.400Z,89.92
2017-12-09T02:17:47.058Z,89.65
2017-12-09T02:20:16.750Z,89.46
2017-12-09T02:22:44.448Z,89.25
2017-12-09T02:25:12.246Z,89.08
2017-12-09T02:27:39.881Z,89.33
2017-12-09T02:30:07.555Z,89.38
2017-12-09T02:32:35.412Z,89.13
2017-12-09T02:35:03.069Z,89.38
2017-12-09T02:37:32.331Z,89.38
2017-12-09T02:40:00.249Z,89.18
2017-12-09T02:42:27.886Z,89.28
2017-12-09T02:44:55.853Z,89.16
2017-12-09T02:47:23.526Z,89.29
2017-12-09T02:49:51.158Z,89.88
2017-12-09T02:52:18.854Z,90.18
2017-12-09T02:54:48.232Z,90.00
2017-12-09T02:57:17.015Z,89.63
2017-12-09T02:59:44.806Z,89.55
2017-12-09T03:02:13.329Z,89.28
2017-12-09T03:04:41.064Z,90.04
2017-12-09T03:07:10.328Z,89.75
2017-12-09T03:09:39.641Z,89.37
2017-12-09T03:12:07.368Z,89.26
2017-12-09T03:14:34.991Z,88.59
2017-12-09T03:17:02.654Z,87.53
2017-12-09T03:19:31.108Z,86.98
2017-12-09T03:22:00.776Z,86.87
2017-12-09T03:24:28.497Z,87.06
2017-12-09T03:26:58.796Z,86.56
2017-12-09T03:29:26.562Z,86.31
2017-12-09T03:31:56.230Z,86.41
2017-12-09T03:34:23.934Z,86.78
2017-12-09T03:36:51.654Z,86.66
2017-12-09T03:39:19.459Z,86.92
2017-12-09T03:41:47.162Z,87.24
2017-12-09T03:44:14.851Z,87.24
2017-12-09T03:46:42.546Z,86.95
2017-12-09T03:49:10.230Z,87.92
2017-12-09T03:51:41.394Z,87.49
2017-12-09T03:54:09.079Z,87.51
2017-12-09T03:56:37.966Z,88.66
2017-12-09T03:59:06.415Z,89.52
2017-12-09T04:01:35.980Z,90.10
2017-12-09T04:04:06.541Z,90.93
2017-12-09T04:06:34.526Z,91.63
2017-12-09T04:09:03.891Z,92.31
2017-12-09T04:11:33.407Z,92.16
2017-12-09T04:14:02.673Z,91.64
2017-12-09T04:16:32.086Z,90.85
2017-12-09T04:19:02.382Z,90.17
2017-12-09T04:21:30.866Z,89.33
2017-12-09T04:23:59.360Z,88.51
2017-12-09T04:26:29.735Z,88.11
2017-12-09T04:28:58.251Z,87.74
2017-12-09T04:31:25.924Z,87.19
2017-12-09T04:33:53.591Z,86.63
2017-12-09T04:36:22.933Z,86.49
2017-12-09T04:38:50.673Z,86.04
2017-12-09T04:41:18.338Z,85.99
2017-12-09T04:43:48.762Z,86.06
2017-12-09T04:46:18.304Z,85.26
2017-12-09T04:48:47.161Z,85.01
2017-12-09T04:51:17.436Z,84.92
2017-12-09T04:53:45.867Z,84.67
2017-12-09T04:56:14.244Z,84.24
2017-12-09T04:58:42.431Z,84.43
2017-12-09T05:01:10.193Z,83.90
2017-12-09T05:03:37.860Z,83.97
2017-12-09T05:06:08.894Z,84.23
2017-12-09T05:08:36.572Z,84.38
2017-12-09T05:11:05.045Z,84.84
2017-12-09T05:13:35.763Z,83.72
2017-12-09T05:16:04.237Z,83.78
2017-12-09T05:18:33.811Z,83.00
2017-12-09T05:21:01.512Z,82.82
2017-12-09T05:23:30.883Z,82.92
2017-12-09T05:26:00.226Z,82.57
2017-12-09T05:28:28.087Z,82.66
2017-12-09T05:31:00.507Z,82.60
2017-12-09T05:33:29.972Z,81.68
2017-12-09T05:35:57.979Z,82.13
2017-12-09T05:38:25.635Z,82.18
2017-12-09T05:40:53.257Z,82.59
2017-12-09T05:43:20.885Z,82.35
2017-12-09T05:45:48.561Z,82.96
2017-12-09T05:48:16.252Z,82.46
2017-12-09T05:50:43.890Z,82.71
2017-12-09T05:53:11.757Z,82.43
2017-12-09T05:55:45.176Z,82.79
2017-12-09T05:58:12.893Z,82.81
2017-12-09T06:00:41.299Z,82.42
2017-12-09T06:03:08.985Z,82.25
2017-12-09T06:05:36.729Z,82.75
2017-12-09T06:08:06.358Z,82.51
2017-12-09T06:10:35.659Z,82.37
2017-12-09T06:13:03.346Z,82.91
2017-12-09T06:15:30.997Z,83.07
2017-12-09T06:18:00.512Z,83.61
2017-12-09T06:20:29.899Z,84.06
2017-12-09T06:22:58.357Z,83.97
2017-12-09T06:25:26.003Z,84.51
2017-12-09T06:27:53.637Z,84.53
2017-12-09T06:30:21.389Z,84.71
2017-12-09T06:32:49.002Z,84.84
2017-12-09T06:35:17.375Z,84.75
2017-12-09T06:37:45.177Z,85.10
2017-12-09T06:40:12.878Z,84.83
2017-12-09T06:42:43.255Z,84.47
2017-12-09T06:45:12.819Z,84.06
2017-12-09T06:47:40.642Z,84.42
2017-12-09T06:50:09.118Z,84.48
2017-12-09T06:52:39.646Z,83.78
2017-12-09T06:55:08.071Z,83.66
2017-12-09T06:57:35.739Z,83.97
2017-12-09T07:00:04.134Z,84.02
2017-12-09T07:02:32.024Z,83.57
2017-12-09T07:05:00.437Z,83.86
2017-12-09T07:07:30.796Z,84.21
2017-12-09T07:09:58.548Z,85.05
2017-12-09T07:12:28.064Z,85.31
2017-12-09T07:14:55.816Z,86.52
2017-12-09T07:17:26.053Z,86.93
2017-12-09T07:19:55.447Z,87.21
2017-12-09T07:22:26.042Z,86.87
2017-12-09T07:24:56.082Z,86.80
2017-12-09T07:27:25.866Z,87.29
2017-12-09T07:29:53.578Z,87.25
2017-12-09T07:32:22.050Z,86.79
2017-12-09T07:34:49.990Z,86.34
2017-12-09T07:37:19.366Z,86.42
2017-12-09T07:39:49.728Z,86.26
2017-12-09T07:42:17.465Z,86.40
2017-12-09T07:44:49.648Z,86.17
2017-12-09T07:47:17.361Z,86.34
2017-12-09T07:49:45.166Z,86.24
2017-12-09T07:52:12.843Z,86.40
2017-12-09T07:54:41.467Z,86.43
2017-12-09T07:57:09.184Z,86.73
2017-12-09T07:59:37.190Z,86.56
2017-12-09T08:02:04.974Z,86.84
2017-12-09T08:04:33.462Z,86.97
2017-12-09T08:07:02.912Z,86.74
2017-12-09T08:09:30.647Z,86.81
2017-12-09T08:11:59.344Z,86.60
2017-12-09T08:14:27.010Z,86.93
2017-12-09T08:16:57.566Z,86.75
2017-12-09T08:19:25.299Z,87.21
2017-12-09T08:21:52.998Z,87.26
2017-12-09T08:24:20.638Z,87.36
2017-12-09T08:26:48.603Z,87.00
2017-12-09T08:29:17.902Z,86.61
2017-12-09T08:31:45.671Z,86.98
2017-12-09T08:34:13.408Z,87.08
2017-12-09T08:36:41.058Z,87.73
2017-12-09T08:39:09.574Z,87.24
2017-12-09T08:41:37.985Z,87.21
2017-12-09T08:44:07.592Z,86.41
2017-12-09T08:46:35.482Z,86.55
2017-12-09T08:49:05.839Z,85.45
2017-12-09T08:51:33.512Z,86.01
2017-12-09T08:54:01.955Z,86.01
2017-12-09T08:56:29.903Z,85.68
2017-12-09T08:58:57.588Z,85.87
2017-12-09T09:01:26.137Z,85.72
2017-12-09T09:03:53.841Z,85.42
2017-12-09T09:06:21.560Z,84.88
2017-12-09T09:08:49.339Z,84.99
2017-12-09T09:11:17.020Z,84.96
2017-12-09T09:13:47.496Z,85.02
2017-12-09T09:16:16.274Z,85.14
2017-12-09T09:18:44.028Z,85.24
2017-12-09T09:21:11.736Z,84.91
2017-12-09T09:23:39.433Z,85.44
2017-12-09T09:26:07.911Z,85.50
2017-12-09T09:28:36.295Z,85.79
2017-12-09T09:31:03.983Z,86.09
2017-12-09T09:33:34.285Z,86.17
2017-12-09T09:36:05.238Z,85.96
2017-12-09T09:38:32.952Z,85.56
2017-12-09T09:41:00.752Z,85.42
2017-12-09T09:43:33.422Z,85.28
2017-12-09T09:46:01.107Z,85.09
2017-12-09T09:48:28.812Z,84.93
2017-12-09T09:50:58.186Z,84.45
2017-12-09T09:53:27.636Z,84.04
2017-12-09T09:55:57.147Z,83.51
2017-12-09T09:58:24.865Z,83.89
2017-12-09T10:00:55.058Z,83.19
2017-12-09T10:03:23.576Z,82.71
2017-12-09T10:05:51.314Z,82.37
2017-12-09T10:08:19.715Z,82.42
2017-12-09T10:10:47.583Z,81.72
2017-12-09T10:13:17.114Z,81.83
2017-12-09T10:15:44.961Z,79.99
2017-12-09T10:18:12.823Z,80.03
2017-12-09T10:20:42.293Z,79.47
2017-12-09T10:23:10.350Z,78.54
2017-12-09T10:25:40.580Z,78.41
2017-12-09T10:28:08.305Z,78.55
2017-12-09T10:30:35.952Z,78.11
2017-12-09T10:33:03.625Z,78.90
2017-12-09T10:35:31.313Z,79.05
2017-12-09T10:38:00.711Z,78.96
2017-12-09T10:40:30.178Z,77.12
2017-12-09T10:43:00.540Z,77.51
2017-12-09T10:45:28.244Z,78.06
2017-12-09T10:47:56.199Z,78.01
2017-12-09T10:50:24.970Z,76.76
2017-12-09T10:52:54.314Z,75.43
2017-12-09T10:55:22.684Z,75.34
2017-12-09T10:57:52.127Z,74.61
2017-12-09T11:00:19.943Z,74.83
2017-12-09T11:02:48.580Z,74.50
2017-12-09T11:05:16.336Z,74.73
2017-12-09T11:07:44.435Z,75.15
2017-12-09T11:10:12.705Z,73.69
2017-12-09T11:12:40.577Z,75.28
2017-12-09T11:15:08.330Z,75.49
2017-12-09T11:17:36.794Z,75.65
2017-12-09T11:20:05.215Z,76.38
2017-12-09T11:22:35.808Z,76.96
2017-12-09T11:25:03.487Z,76.80
2017-12-09T11:27:31.246Z,77.09
2017-12-09T11:30:00.640Z,77.35
2017-12-09T11:32:28.483Z,76.92
2017-12-09T11:34:56.217Z,77.90
2017-12-09T11:37:25.751Z,77.52
2017-12-09T11:39:55.219Z,78.36
2017-12-09T11:42:24.052Z,78.63
2017-12-09T11:44:51.763Z,78.15
2017-12-09T11:47:19.435Z,77.24
2017-12-09T11:49:49.641Z,77.78
2017-12-09T11:52:17.377Z,77.85
2017-12-09T11:54:48.977Z,77.26
2017-12-09T11:57:16.693Z,76.95
2017-12-09T11:59:44.387Z,75.43
2017-12-09T12:02:12.243Z,76.32
2017-12-09T12:04:41.754Z,76.18
2017-12-09T12:07:11.103Z,74.86
2017-12-09T12:09:39.927Z,75.24
2017-12-09T12:12:09.418Z,75.37
2017-12-09T12:14:37.208Z,74.93
2017-12-09T12:17:07.048Z,74.63
2017-12-09T12:19:35.931Z,75.46
2017-12-09T12:22:04.416Z,74.81
2017-12-09T12:36:15.333Z,74.42
2017-12-09T12:38:45.892Z,70.66
2017-12-09T12:41:15.266Z,70.50
2017-12-09T12:43:44.694Z,70.49
2017-12-09T12:46:12.411Z,70.79
2017-12-09T12:48:41.771Z,69.81
2017-12-09T12:51:10.566Z,70.02
2017-12-09T12:53:40.598Z,69.75
2017-12-09T12:56:10.157Z,69.99
2017-12-09T12:58:37.876Z,69.65
2017-12-09T13:01:06.656Z,70.30
2017-12-09T13:03:34.354Z,70.32
2017-12-09T13:30:09.869Z,73.45
2017-12-09T13:32:38.304Z,73.40
2017-12-09T13:35:07.587Z,73.86
2017-12-09T13:37:37.865Z,73.94
2017-12-09T13:40:06.311Z,73.09
2017-12-09T13:42:36.109Z,72.89
2017-12-09T13:45:05.589Z,71.12
2017-12-09T13:47:33.431Z,70.06
2017-12-09T13:50:03.219Z,70.69
2017-12-09T13:52:30.894Z,69.64
2017-12-09T13:55:00.195Z,69.68
2017-12-09T13:57:30.310Z,67.88
2017-12-09T14:00:01.559Z,69.40
2017-12-09T14:02:31.125Z,69.46
2017-12-09T14:05:01.698Z,69.18
2017-12-09T14:07:33.015Z,70.06
2017-12-09T14:10:00.815Z,69.98
2017-12-09T14:12:30.126Z,69.92
2017-12-09T14:14:59.722Z,69.34
2017-12-09T14:17:29.068Z,69.43
2017-12-09T14:19:59.452Z,69.77
2017-12-09T14:22:29.821Z,69.53
2017-12-09T14:24:57.578Z,70.20
2017-12-09T14:27:27.099Z,69.84
2017-12-09T14:29:57.416Z,70.68
2017-12-09T14:32:29.012Z,70.69
2017-12-09T14:34:56.808Z,71.33
2017-12-09T14:37:24.578Z,71.46
2017-12-09T14:39:52.859Z,70.58
2017-12-09T14:42:22.292Z,71.58
2017-12-09T14:44:51.234Z,71.37
2017-12-09T14:47:21.773Z,71.34
2017-12-09T14:49:52.189Z,71.38
2017-12-09T14:52:21.036Z,72.07
2017-12-09T14:54:49.828Z,71.56
2017-12-09T14:57:19.632Z,70.22
2017-12-09T14:59:48.933Z,70.34
2017-12-09T15:02:16.840Z,70.51
2017-12-09T15:04:44.711Z,70.51
2017-12-09T15:07:12.627Z,70.23
2017-12-09T15:09:42.160Z,70.06
2017-12-09T15:12:11.635Z,69.67
2017-12-09T15:14:39.345Z,69.35
2017-12-09T15:17:07.490Z,69.70
2017-12-09T15:19:37.329Z,69.40
2017-12-09T15:22:05.975Z,69.04
2017-12-09T15:24:34.197Z,69.33
2017-12-09T15:27:02.027Z,69.05
2017-12-09T15:29:31.662Z,69.70
2017-12-09T15:31:59.562Z,70.22
2017-12-09T15:34:30.060Z,69.92
2017-12-09T15:36:58.038Z,70.24
2017-12-09T15:39:28.365Z,69.83
2017-12-09T15:41:56.040Z,70.63
2017-12-09T15:44:25.667Z,70.94
2017-12-09T15:46:57.450Z,70.53
2017-12-09T15:49:25.473Z,70.79
2017-12-09T15:51:54.869Z,70.62
2017-12-09T15:54:22.952Z,70.48
2017-12-09T15:56:52.247Z,70.50
2017-12-09T15:59:22.931Z,70.94
2017-12-09T16:01:52.545Z,71.27
2017-12-09T16:04:21.894Z,71.36
2017-12-09T16:06:50.542Z,71.64
2017-12-09T16:09:18.432Z,71.54
2017-12-09T16:11:50.266Z,71.90
2017-12-09T16:14:19.760Z,72.47
2017-12-09T16:16:49.400Z,72.75
2017-12-09T16:19:18.958Z,72.54
2017-12-09T16:21:47.530Z,72.89
2017-12-09T16:24:16.219Z,73.04
2017-12-09T16:26:45.013Z,73.46
2017-12-09T16:29:15.537Z,74.02
2017-12-09T16:31:43.233Z,74.29
2017-12-09T16:34:13.576Z,74.04
2017-12-09T16:36:41.390Z,74.78
2017-12-09T16:39:10.756Z,74.63
2017-12-09T16:41:41.133Z,74.52
2017-12-09T16:44:09.717Z,74.20
2017-12-09T16:46:39.089Z,74.86
2017-12-09T16:49:07.209Z,73.81
2017-12-09T16:51:34.979Z,74.27
2017-12-09T16:54:04.366Z,74.37
2017-12-09T16:56:32.859Z,74.46
2017-12-09T16:59:01.354Z,73.88
2017-12-09T17:01:29.278Z,73.35
2017-12-09T17:03:57.722Z,73.78
2017-12-09T17:06:25.433Z,73.83
2017-12-09T17:08:53.947Z,74.14
2017-12-09T17:11:23.444Z,74.42
2017-12-09T17:13:53.142Z,74.72
2017-12-09T17:16:21.169Z,74.91
2017-12-09T17:18:50.694Z,75.11
2017-12-09T17:21:18.773Z,75.55
2017-12-09T17:23:48.157Z,76.14
2017-12-09T17:26:16.115Z,76.29
2017-12-09T17:28:43.784Z,76.45
2017-12-09T17:31:11.453Z,76.75
2017-12-09T17:33:40.124Z,76.83
2017-12-09T17:36:10.577Z,76.77
2017-12-09T17:38:38.323Z,77.19
2017-12-09T17:41:05.995Z,76.97
2017-12-09T17:43:33.852Z,77.16
2017-12-09T17:46:01.622Z,77.57
2017-12-09T17:48:29.316Z,77.75
2017-12-09T17:50:58.880Z,77.94
2017-12-09T17:53:26.758Z,78.47
2017-12-09T17:55:56.489Z,78.27
2017-12-09T17:58:26.773Z,78.51
2017-12-09T18:00:56.851Z,78.16
2017-12-09T18:03:26.874Z,78.37
2017-12-09T18:05:54.925Z,78.27
2017-12-09T18:08:25.381Z,78.70
2017-12-09T18:10:53.115Z,78.93
2017-12-09T18:13:22.762Z,78.60
2017-12-09T18:15:50.621Z,78.64
2017-12-09T18:18:18.502Z,78.91
2017-12-09T18:20:46.429Z,78.57
2017-12-09T18:23:14.160Z,78.95
2017-12-09T18:25:44.479Z,78.94
2017-12-09T18:28:14.349Z,79.29
2017-12-09T18:30:44.963Z,79.09
2017-12-09T18:33:12.766Z,79.16
2017-12-09T18:35:41.546Z,79.29
2017-12-09T18:38:11.160Z,79.18
2017-12-09T18:40:39.020Z,79.19
2017-12-09T18:43:07.629Z,78.93
2017-12-09T18:45:35.507Z,79.40
2017-12-09T18:48:03.964Z,79.19
2017-12-09T18:50:32.553Z,79.55
2017-12-09T18:53:01.137Z,79.57
2017-12-09T18:55:30.482Z,79.31
2017-12-09T18:57:58.212Z,79.44
2017-12-09T19:00:26.082Z,79.46
2017-12-09T19:02:55.656Z,79.48
2017-12-09T19:05:23.636Z,79.18
2017-12-09T19:07:52.165Z,79.39
2017-12-09T19:10:19.925Z,79.42
2017-12-09T19:12:47.681Z,79.44
2017-12-09T19:15:15.553Z,79.50
2017-12-09T19:17:45.928Z,79.18
2017-12-09T19:20:13.667Z,79.08
2017-12-09T19:22:41.488Z,79.17
2017-12-09T19:25:14.066Z,79.19
2017-12-09T19:27:42.586Z,79.24
2017-12-09T19:30:10.524Z,78.99
2017-12-09T19:32:39.024Z,79.40
2017-12-09T19:35:07.525Z,79.55
2017-12-09T19:37:35.253Z,79.33
2017-12-09T19:40:04.500Z,79.88
2017-12-09T19:42:32.210Z,79.82
2017-12-09T19:45:00.005Z,79.65
2017-12-09T19:47:27.883Z,79.90
2017-12-09T19:49:55.773Z,79.94
2017-12-09T19:52:23.723Z,79.74
2017-12-09T19:54:52.868Z,80.42
2017-12-09T19:57:20.860Z,80.35
2017-12-09T19:59:48.847Z,80.52
2017-12-09T20:02:16.853Z,80.62
2017-12-09T20:04:46.532Z,80.50
2017-12-09T20:07:14.701Z,80.28
2017-12-09T20:09:44.189Z,80.22
2017-12-09T20:12:14.084Z,80.41
2017-12-09T20:14:41.988Z,80.11
2017-12-09T20:17:11.730Z,80.27
2017-12-09T20:19:41.301Z,80.27
2017-12-09T20:22:09.239Z,80.54
2017-12-09T20:24:38.036Z,80.28
2017-12-09T20:27:06.097Z,80.36
2017-12-09T20:29:33.973Z,80.44
2017-12-09T20:32:05.344Z,80.19
2017-12-09T20:34:36.662Z,80.60
2017-12-09T21:03:08.641Z,79.30
2017-12-09T21:05:36.451Z,79.22
2017-12-09T21:08:08.301Z,79.34
2017-12-09T21:10:36.423Z,79.11
2017-12-09T21:13:04.471Z,78.95
2017-12-09T21:15:34.440Z,79.18
2017-12-09T21:18:03.680Z,78.28
2017-12-09T21:20:34.172Z,77.69
2017-12-09T21:23:02.809Z,78.12
2017-12-09T21:25:31.210Z,78.27
2017-12-09T21:27:59.153Z,78.25
2017-12-09T21:30:29.992Z,78.15
2017-12-09T21:32:57.873Z,77.88
2017-12-09T21:35:27.596Z,77.56
2017-12-09T21:37:55.456Z,77.51
2017-12-09T21:40:25.018Z,77.48
2017-12-09T21:42:54.622Z,77.32
2017-12-09T21:45:22.440Z,77.51
2017-12-09T21:47:50.251Z,77.71
2017-12-09T21:50:19.798Z,77.15
2017-12-09T21:52:47.562Z,77.24
2017-12-09T21:55:17.125Z,77.50
2017-12-09T21:57:46.766Z,76.94
2017-12-09T22:00:24.589Z,76.79
2017-12-09T22:02:55.278Z,77.20
2017-12-09T22:05:23.263Z,76.79
2017-12-09T22:07:53.141Z,77.18
2017-12-09T22:10:22.850Z,76.78
2017-12-09T22:12:51.901Z,76.99
2017-12-09T22:15:21.662Z,77.17
2017-12-09T22:17:51.613Z,76.53
2017-12-09T22:20:19.283Z,76.40
2017-12-09T22:22:47.045Z,76.78
2017-12-09T22:25:14.760Z,77.12
2017-12-09T22:27:42.425Z,77.39
2017-12-09T22:30:10.137Z,77.72
2017-12-09T22:32:39.704Z,77.30
2017-12-09T22:35:07.436Z,77.24
2017-12-09T22:37:35.113Z,77.24
2017-12-09T22:40:02.984Z,77.36
2017-12-09T22:42:32.514Z,77.42
2017-12-09T22:45:02.006Z,77.58
2017-12-09T22:47:29.931Z,77.62
2017-12-09T22:49:59.232Z,77.73
2017-12-09T22:52:26.966Z,77.76
2017-12-09T22:54:56.394Z,77.70
2017-12-09T22:57:24.146Z,77.59
2017-12-09T22:59:54.256Z,77.89
2017-12-09T23:02:21.938Z,77.33
2017-12-09T23:04:49.596Z,77.56
2017-12-09T23:07:19.876Z,77.67
2017-12-09T23:09:48.401Z,77.74
2017-12-09T23:12:16.889Z,77.75
2017-12-09T23:14:44.794Z,77.97
2017-12-09T23:17:12.878Z,77.93
2017-12-09T23:19:41.289Z,77.77
2017-12-09T23:22:13.386Z,77.56
2017-12-09T23:24:41.344Z,77.70
2017-12-09T23:27:09.120Z,77.58
2017-12-09T23:29:36.880Z,77.66
2017-12-09T23:32:06.196Z,77.76
2017-12-09T23:34:33.940Z,77.79
2017-12-09T23:37:03.536Z,78.17
2017-12-09T23:39:33.804Z,78.05
2017-12-09T23:42:02.303Z,77.82
2017-12-09T23:44:30.101Z,78.05
2017-12-09T23:46:57.805Z,78.08
2017-12-09T23:49:25.534Z,77.91
2017-12-09T23:51:54.837Z,78.09
2017-12-09T23:54:25.107Z,77.88
2017-12-09T23:56:54.644Z,77.99
2017-12-09T23:59:23.092Z,78.27
